sensor_id;sensor_type;location;lat;lon;timestamp;pressure;altitude;pressure_sealevel;temperature;humidity
79150;BME280;68563;45.644;13.782;2024-02-04T00:01:21;101840.22;;;8.27;63.29
79150;BME280;68563;45.644;13.782;2024-02-04T00:03:47;101832.34;;;8.21;62.96
79150;BME280;68563;45.644;13.782;2024-02-04T00:06:12;101842.72;;;8.24;63.19
79150;BME280;68563;45.644;13.782;2024-02-04T00:08:37;101853.13;;;8.27;63.17
79150;BME280;68563;45.644;13.782;2024-02-04T00:11:03;101856.53;;;8.26;63.05
79150;BME280;68563;45.644;13.782;2024-02-04T00:13:33;101857.41;;;8.28;63.50
79150;BME280;68563;45.644;13.782;2024-02-04T00:15:59;101860.00;;;8.28;63.55
79150;BME280;68563;45.644;13.782;2024-02-04T00:18:24;101864.28;;;8.26;63.47
79150;BME280;68563;45.644;13.782;2024-02-04T00:20:50;101865.16;;;8.28;63.38
79150;BME280;68563;45.644;13.782;2024-02-04T00:23:15;101855.72;;;8.28;63.29
79150;BME280;68563;45.644;13.782;2024-02-04T00:25:41;101841.91;;;8.25;63.08
79150;BME280;68563;45.644;13.782;2024-02-04T00:28:07;101852.22;;;8.26;63.07
79150;BME280;68563;45.644;13.782;2024-02-04T00:30:33;101848.81;;;8.29;63.18
79150;BME280;68563;45.644;13.782;2024-02-04T00:32:58;101840.16;;;8.25;63.18
79150;BME280;68563;45.644;13.782;2024-02-04T00:35:28;101844.47;;;8.25;63.74
79150;BME280;68563;45.644;13.782;2024-02-04T00:37:53;101835.91;;;8.26;63.77
79150;BME280;68563;45.644;13.782;2024-02-04T00:40:19;101829.84;;;8.24;63.74
79150;BME280;68563;45.644;13.782;2024-02-04T00:42:44;101821.41;;;8.36;63.24
79150;BME280;68563;45.644;13.782;2024-02-04T00:45:10;101830.63;;;8.20;63.80
79150;BME280;68563;45.644;13.782;2024-02-04T00:47:35;101829.84;;;8.24;63.60
79150;BME280;68563;45.644;13.782;2024-02-04T00:50:01;101828.16;;;8.26;63.76
79150;BME280;68563;45.644;13.782;2024-02-04T00:52:26;101822.91;;;8.21;63.70
79150;BME280;68563;45.644;13.782;2024-02-04T00:54:52;101825.53;;;8.24;63.07
79150;BME280;68563;45.644;13.782;2024-02-04T00:57:17;101836.75;;;8.26;63.12
79150;BME280;68563;45.644;13.782;2024-02-04T00:59:42;101824.78;;;8.31;63.06
79150;BME280;68563;45.644;13.782;2024-02-04T01:02:08;101828.16;;;8.27;62.32
79150;BME280;68563;45.644;13.782;2024-02-04T01:04:33;101818.84;;;8.36;62.30
79150;BME280;68563;45.644;13.782;2024-02-04T01:06:59;101823.91;;;8.29;62.60
79150;BME280;68563;45.644;13.782;2024-02-04T01:09:24;101820.44;;;8.29;62.66
79150;BME280;68563;45.644;13.782;2024-02-04T01:11:49;101816.19;;;8.31;62.83
79150;BME280;68563;45.644;13.782;2024-02-04T01:14:15;101815.28;;;8.29;62.88
79150;BME280;68563;45.644;13.782;2024-02-04T01:16:40;101829.91;;;8.28;62.59
79150;BME280;68563;45.644;13.782;2024-02-04T01:19:06;101832.47;;;8.27;62.25
79150;BME280;68563;45.644;13.782;2024-02-04T01:21:31;101830.66;;;8.21;62.31
79150;BME280;68563;45.644;13.782;2024-02-04T01:23:56;101824.59;;;8.19;62.29
79150;BME280;68563;45.644;13.782;2024-02-04T01:26:22;101837.63;;;8.27;62.38
79150;BME280;68563;45.644;13.782;2024-02-04T01:28:49;101838.50;;;8.27;62.68
79150;BME280;68563;45.644;13.782;2024-02-04T01:31:14;101830.69;;;8.24;62.76
79150;BME280;68563;45.644;13.782;2024-02-04T01:33:40;101839.31;;;8.26;62.85
79150;BME280;68563;45.644;13.782;2024-02-04T01:36:05;101839.31;;;8.25;62.84
79150;BME280;68563;45.644;13.782;2024-02-04T01:38:31;101841.06;;;8.26;63.02
79150;BME280;68563;45.644;13.782;2024-02-04T01:40:57;101838.44;;;8.24;62.69
79150;BME280;68563;45.644;13.782;2024-02-04T01:43:23;101827.19;;;8.21;62.98
79150;BME280;68563;45.644;13.782;2024-02-04T01:45:50;101832.41;;;8.22;62.73
79150;BME280;68563;45.644;13.782;2024-02-04T01:48:16;101822.00;;;8.18;62.54
79150;BME280;68563;45.644;13.782;2024-02-04T01:50:43;101819.44;;;8.21;62.65
79150;BME280;68563;45.644;13.782;2024-02-04T01:53:09;101809.16;;;8.22;62.54
79150;BME280;68563;45.644;13.782;2024-02-04T01:55:36;101813.50;;;8.23;62.67
79150;BME280;68563;45.644;13.782;2024-02-04T01:58:02;101804.03;;;8.24;62.51
79150;BME280;68563;45.644;13.782;2024-02-04T02:00:27;101802.34;;;8.27;62.42
79150;BME280;68563;45.644;13.782;2024-02-04T02:02:55;101804.84;;;8.20;62.63
79150;BME280;68563;45.644;13.782;2024-02-04T02:05:21;101809.94;;;8.17;62.40
79150;BME280;68563;45.644;13.782;2024-02-04T02:07:47;101813.44;;;8.22;62.48
79150;BME280;68563;45.644;13.782;2024-02-04T02:10:17;101816.06;;;8.23;62.53
79150;BME280;68563;45.644;13.782;2024-02-04T02:15:15;101816.00;;;8.19;62.86
79150;BME280;68563;45.644;13.782;2024-02-04T02:17:51;101822.84;;;8.17;63.31
79150;BME280;68563;45.644;13.782;2024-02-04T02:23:07;101799.59;;;8.13;62.81
79150;BME280;68563;45.644;13.782;2024-02-04T02:25:33;101815.91;;;8.12;62.73
79150;BME280;68563;45.644;13.782;2024-02-04T02:28:01;101821.06;;;8.14;62.88
79150;BME280;68563;45.644;13.782;2024-02-04T02:30:26;101818.47;;;8.12;62.70
79150;BME280;68563;45.644;13.782;2024-02-04T02:32:52;101825.31;;;8.09;62.81
79150;BME280;68563;45.644;13.782;2024-02-04T02:35:17;101827.84;;;8.07;62.70
79150;BME280;68563;45.644;13.782;2024-02-04T02:40:23;101818.34;;;8.05;62.73
79150;BME280;68563;45.644;13.782;2024-02-04T02:42:53;101811.44;;;8.02;63.36
79150;BME280;68563;45.644;13.782;2024-02-04T02:45:21;101809.75;;;8.04;63.33
79150;BME280;68563;45.644;13.782;2024-02-04T02:47:49;101820.16;;;8.09;63.29
79150;BME280;68563;45.644;13.782;2024-02-04T02:50:15;101823.59;;;8.09;63.01
79150;BME280;68563;45.644;13.782;2024-02-04T02:52:41;101821.00;;;8.08;62.99
79150;BME280;68563;45.644;13.782;2024-02-04T02:55:07;101820.16;;;8.10;62.88
79150;BME280;68563;45.644;13.782;2024-02-04T02:57:32;101814.91;;;8.04;63.11
79150;BME280;68563;45.644;13.782;2024-02-04T02:59:57;101826.13;;;8.06;63.09
79150;BME280;68563;45.644;13.782;2024-02-04T03:02:23;101832.97;;;8.06;62.97
79150;BME280;68563;45.644;13.782;2024-02-04T03:04:48;101833.81;;;8.03;63.37
79150;BME280;68563;45.644;13.782;2024-02-04T03:07:14;101842.47;;;8.08;63.17
79150;BME280;68563;45.644;13.782;2024-02-04T03:09:39;101836.44;;;8.06;63.07
79150;BME280;68563;45.644;13.782;2024-02-04T03:12:05;101820.88;;;8.02;63.28
79150;BME280;68563;45.644;13.782;2024-02-04T03:14:30;101816.66;;;8.05;63.25
79150;BME280;68563;45.644;13.782;2024-02-04T03:16:56;101802.72;;;7.95;63.40
79150;BME280;68563;45.644;13.782;2024-02-04T03:19:21;101801.78;;;7.90;63.52
79150;BME280;68563;45.644;13.782;2024-02-04T03:21:47;101813.91;;;7.96;63.41
79150;BME280;68563;45.644;13.782;2024-02-04T03:24:12;101813.06;;;7.95;63.27
79150;BME280;68563;45.644;13.782;2024-02-04T03:26:38;101804.44;;;7.95;63.36
79150;BME280;68563;45.644;13.782;2024-02-04T03:29:03;101795.84;;;7.94;63.28
79150;BME280;68563;45.644;13.782;2024-02-04T03:31:30;101797.59;;;7.98;63.17
79150;BME280;68563;45.644;13.782;2024-02-04T03:33:56;101780.34;;;7.94;63.22
79150;BME280;68563;45.644;13.782;2024-02-04T03:36:23;101773.63;;;8.04;62.84
79150;BME280;68563;45.644;13.782;2024-02-04T03:38:49;101767.56;;;8.02;62.73
79150;BME280;68563;45.644;13.782;2024-02-04T03:41:14;101753.63;;;7.89;62.89
79150;BME280;68563;45.644;13.782;2024-02-04T03:43:40;101770.03;;;7.93;62.69
79150;BME280;68563;45.644;13.782;2024-02-04T03:46:05;101767.38;;;7.88;62.59
79150;BME280;68563;45.644;13.782;2024-02-04T03:48:30;101774.19;;;7.86;62.59
79150;BME280;68563;45.644;13.782;2024-02-04T03:50:56;101781.97;;;7.88;62.46
79150;BME280;68563;45.644;13.782;2024-02-04T03:53:21;101787.09;;;7.85;62.63
79150;BME280;68563;45.644;13.782;2024-02-04T03:55:48;101788.81;;;7.86;62.16
79150;BME280;68563;45.644;13.782;2024-02-04T03:58:14;101787.13;;;7.88;62.36
79150;BME280;68563;45.644;13.782;2024-02-04T04:00:40;101788.00;;;7.88;62.80
79150;BME280;68563;45.644;13.782;2024-02-04T04:03:05;101782.75;;;7.83;62.91
79150;BME280;68563;45.644;13.782;2024-02-04T04:05:31;101793.91;;;7.82;62.88
79150;BME280;68563;45.644;13.782;2024-02-04T04:07:56;101798.22;;;7.82;62.71
79150;BME280;68563;45.644;13.782;2024-02-04T04:10:21;101793.84;;;7.79;62.58
79150;BME280;68563;45.644;13.782;2024-02-04T04:12:47;101799.81;;;7.77;62.73
79150;BME280;68563;45.644;13.782;2024-02-04T04:15:12;101783.41;;;7.70;62.36
79150;BME280;68563;45.644;13.782;2024-02-04T04:17:38;101785.19;;;7.74;62.33
79150;BME280;68563;45.644;13.782;2024-02-04T04:20:05;101780.03;;;7.74;62.30
79150;BME280;68563;45.644;13.782;2024-02-04T04:22:31;101768.00;;;7.75;62.34
79150;BME280;68563;45.644;13.782;2024-02-04T04:24:56;101773.16;;;7.75;62.33
79150;BME280;68563;45.644;13.782;2024-02-04T04:27:22;101777.50;;;7.77;62.24
79150;BME280;68563;45.644;13.782;2024-02-04T04:29:47;101775.03;;;7.83;61.98
79150;BME280;68563;45.644;13.782;2024-02-04T04:32:12;101780.09;;;7.77;62.05
79150;BME280;68563;45.644;13.782;2024-02-04T04:34:38;101778.28;;;7.73;62.06
79150;BME280;68563;45.644;13.782;2024-02-04T04:37:03;101780.84;;;7.73;61.76
79150;BME280;68563;45.644;13.782;2024-02-04T04:39:29;101779.09;;;7.71;61.72
79150;BME280;68563;45.644;13.782;2024-02-04T04:41:54;101768.78;;;7.69;61.88
79150;BME280;68563;45.644;13.782;2024-02-04T04:44:19;101768.75;;;7.68;61.33
79150;BME280;68563;45.644;13.782;2024-02-04T04:46:45;101772.28;;;7.73;61.85
79150;BME280;68563;45.644;13.782;2024-02-04T04:49:10;101764.53;;;7.73;61.05
79150;BME280;68563;45.644;13.782;2024-02-04T04:51:35;101767.00;;;7.65;61.05
79150;BME280;68563;45.644;13.782;2024-02-04T04:54:01;101745.31;;;7.55;61.67
79150;BME280;68563;45.644;13.782;2024-02-04T04:56:26;101767.00;;;7.65;61.60
79150;BME280;68563;45.644;13.782;2024-02-04T04:58:51;101777.25;;;7.63;61.49
79150;BME280;68563;45.644;13.782;2024-02-04T05:01:17;101794.38;;;7.60;61.56
79150;BME280;68563;45.644;13.782;2024-02-04T05:03:43;101809.91;;;7.61;61.81
79150;BME280;68563;45.644;13.782;2024-02-04T05:06:09;101809.91;;;7.61;61.83
79150;BME280;68563;45.644;13.782;2024-02-04T05:08:34;101805.53;;;7.59;62.26
79150;BME280;68563;45.644;13.782;2024-02-04T05:10:59;101803.09;;;7.65;62.04
79150;BME280;68563;45.644;13.782;2024-02-04T05:13:25;101817.66;;;7.63;62.17
79150;BME280;68563;45.644;13.782;2024-02-04T05:15:50;101816.75;;;7.61;61.81
79150;BME280;68563;45.644;13.782;2024-02-04T05:18:16;101821.00;;;7.59;61.84
79150;BME280;68563;45.644;13.782;2024-02-04T05:20:41;101821.88;;;7.58;61.84
79150;BME280;68563;45.644;13.782;2024-02-04T05:23:08;101825.22;;;7.54;62.06
79150;BME280;68563;45.644;13.782;2024-02-04T05:25:34;101828.72;;;7.59;62.04
79150;BME280;68563;45.644;13.782;2024-02-04T05:27:59;101824.34;;;7.53;62.05
79150;BME280;68563;45.644;13.782;2024-02-04T05:30:24;101825.31;;;7.58;61.83
79150;BME280;68563;45.644;13.782;2024-02-04T05:32:50;101825.38;;;7.61;61.41
79150;BME280;68563;45.644;13.782;2024-02-04T05:35:15;101818.50;;;7.62;60.80
79150;BME280;68563;45.644;13.782;2024-02-04T05:37:40;101827.03;;;7.59;60.79
79150;BME280;68563;45.644;13.782;2024-02-04T05:40:06;101823.56;;;7.57;60.72
79150;BME280;68563;45.644;13.782;2024-02-04T05:42:32;101832.19;;;7.59;61.00
79150;BME280;68563;45.644;13.782;2024-02-04T05:44:58;101838.22;;;7.60;61.10
79150;BME280;68563;45.644;13.782;2024-02-04T05:47:23;101834.81;;;7.62;61.46
79150;BME280;68563;45.644;13.782;2024-02-04T05:49:49;101845.09;;;7.61;61.67
79150;BME280;68563;45.644;13.782;2024-02-04T05:52:15;101849.41;;;7.60;61.55
79150;BME280;68563;45.644;13.782;2024-02-04T05:54:40;101839.03;;;7.57;61.73
79150;BME280;68563;45.644;13.782;2024-02-04T05:57:06;101837.25;;;7.55;60.79
79150;BME280;68563;45.644;13.782;2024-02-04T05:59:32;101827.69;;;7.49;60.85
79150;BME280;68563;45.644;13.782;2024-02-04T06:01:58;101837.34;;;7.58;61.12
79150;BME280;68563;45.644;13.782;2024-02-04T06:04:23;101838.19;;;7.58;60.92
79150;BME280;68563;45.644;13.782;2024-02-04T06:06:48;101836.44;;;7.56;61.35
79150;BME280;68563;45.644;13.782;2024-02-04T06:09:14;101850.19;;;7.56;61.32
79150;BME280;68563;45.644;13.782;2024-02-04T06:11:39;101859.59;;;7.54;61.37
79150;BME280;68563;45.644;13.782;2024-02-04T06:14:05;101859.56;;;7.53;61.18
79150;BME280;68563;45.644;13.782;2024-02-04T06:16:30;101856.13;;;7.52;61.33
79150;BME280;68563;45.644;13.782;2024-02-04T06:18:56;101852.66;;;7.51;61.37
79150;BME280;68563;45.644;13.782;2024-02-04T06:21:23;101850.13;;;7.53;61.35
79150;BME280;68563;45.644;13.782;2024-02-04T06:23:48;101833.66;;;7.46;61.17
79150;BME280;68563;45.644;13.782;2024-02-04T06:26:14;101831.91;;;7.44;61.09
79150;BME280;68563;45.644;13.782;2024-02-04T06:28:39;101828.38;;;7.37;60.71
79150;BME280;68563;45.644;13.782;2024-02-04T06:31:08;101831.84;;;7.41;60.55
79150;BME280;68563;45.644;13.782;2024-02-04T06:33:34;101831.81;;;7.39;60.78
79150;BME280;68563;45.644;13.782;2024-02-04T06:35:59;101822.41;;;7.41;60.67
79150;BME280;68563;45.644;13.782;2024-02-04T06:38:25;101819.94;;;7.47;60.66
79150;BME280;68563;45.644;13.782;2024-02-04T06:40:51;101816.50;;;7.47;60.54
79150;BME280;68563;45.644;13.782;2024-02-04T06:43:16;101820.94;;;7.54;60.29
79150;BME280;68563;45.644;13.782;2024-02-04T06:45:42;101835.63;;;7.58;60.01
79150;BME280;68563;45.644;13.782;2024-02-04T06:48:07;101822.59;;;7.50;60.05
79150;BME280;68563;45.644;13.782;2024-02-04T06:50:33;101849.34;;;7.57;59.69
79150;BME280;68563;45.644;13.782;2024-02-04T06:52:58;101851.88;;;7.54;59.68
79150;BME280;68563;45.644;13.782;2024-02-04T06:55:24;101857.06;;;7.56;59.87
79150;BME280;68563;45.644;13.782;2024-02-04T06:57:49;101860.53;;;7.58;60.12
79150;BME280;68563;45.644;13.782;2024-02-04T07:00:15;101855.50;;;7.64;60.06
79150;BME280;68563;45.644;13.782;2024-02-04T07:02:40;101859.88;;;7.70;60.26
79150;BME280;68563;45.644;13.782;2024-02-04T07:05:06;101860.78;;;7.72;60.07
79150;BME280;68563;45.644;13.782;2024-02-04T07:07:32;101865.13;;;7.74;60.21
79150;BME280;68563;45.644;13.782;2024-02-04T07:10:00;101862.59;;;7.77;59.96
79150;BME280;68563;45.644;13.782;2024-02-04T07:12:25;101865.19;;;7.79;59.80
79150;BME280;68563;45.644;13.782;2024-02-04T07:14:50;101875.63;;;7.85;59.86
79150;BME280;68563;45.644;13.782;2024-02-04T07:17:16;101870.63;;;7.93;59.88
79150;BME280;68563;45.644;13.782;2024-02-04T07:19:42;101879.44;;;8.07;59.62
79150;BME280;68563;45.644;13.782;2024-02-04T07:22:08;101888.28;;;8.22;60.40
79150;BME280;68563;45.644;13.782;2024-02-04T07:24:33;101874.78;;;8.37;60.31
79150;BME280;68563;45.644;13.782;2024-02-04T07:27:00;101877.59;;;8.51;59.49
79150;BME280;68563;45.644;13.782;2024-02-04T07:29:26;101867.31;;;8.54;59.04
79150;BME280;68563;45.644;13.782;2024-02-04T07:31:51;101870.78;;;8.56;58.98
79150;BME280;68563;45.644;13.782;2024-02-04T07:34:16;101879.31;;;8.50;59.02
79150;BME280;68563;45.644;13.782;2024-02-04T07:36:42;101870.66;;;8.48;59.10
79150;BME280;68563;45.644;13.782;2024-02-04T07:39:09;101859.31;;;8.40;59.28
79150;BME280;68563;45.644;13.782;2024-02-04T07:41:34;101865.38;;;8.40;59.69
79150;BME280;68563;45.644;13.782;2024-02-04T07:43:59;101886.03;;;8.40;60.18
79150;BME280;68563;45.644;13.782;2024-02-04T07:46:25;101885.19;;;8.41;60.67
79150;BME280;68563;45.644;13.782;2024-02-04T07:48:50;101891.09;;;8.34;61.49
79150;BME280;68563;45.644;13.782;2024-02-04T07:51:15;101891.84;;;8.30;61.80
79150;BME280;68563;45.644;13.782;2024-02-04T07:53:41;101884.09;;;8.27;62.24
79150;BME280;68563;45.644;13.782;2024-02-04T07:56:07;101879.66;;;8.20;62.50
79150;BME280;68563;45.644;13.782;2024-02-04T07:58:33;101899.50;;;8.24;62.58
79150;BME280;68563;45.644;13.782;2024-02-04T08:00:58;101903.91;;;8.29;62.38
79150;BME280;68563;45.644;13.782;2024-02-04T08:03:24;101914.16;;;8.26;62.74
79150;BME280;68563;45.644;13.782;2024-02-04T08:05:49;101916.84;;;8.31;62.90
79150;BME280;68563;45.644;13.782;2024-02-04T08:08:15;101913.44;;;8.35;62.58
79150;BME280;68563;45.644;13.782;2024-02-04T08:10:40;101898.03;;;8.38;63.08
79150;BME280;68563;45.644;13.782;2024-02-04T08:13:06;101881.69;;;8.38;63.02
79150;BME280;68563;45.644;13.782;2024-02-04T08:15:31;101886.03;;;8.43;62.82
79150;BME280;68563;45.644;13.782;2024-02-04T08:17:57;101890.38;;;8.44;63.02
79150;BME280;68563;45.644;13.782;2024-02-04T08:20:22;101905.16;;;8.52;62.76
79150;BME280;68563;45.644;13.782;2024-02-04T08:22:48;101894.81;;;8.52;62.75
79150;BME280;68563;45.644;13.782;2024-02-04T08:25:13;101900.03;;;8.55;62.61
79150;BME280;68563;45.644;13.782;2024-02-04T08:27:39;101912.97;;;8.56;62.42
79150;BME280;68563;45.644;13.782;2024-02-04T08:30:05;101912.97;;;8.56;62.13
79150;BME280;68563;45.644;13.782;2024-02-04T08:32:31;101908.72;;;8.60;62.22
79150;BME280;68563;45.644;13.782;2024-02-04T08:34:57;101913.91;;;8.61;62.27
79150;BME280;68563;45.644;13.782;2024-02-04T08:37:23;101917.41;;;8.65;62.11
79150;BME280;68563;45.644;13.782;2024-02-04T08:39:48;101919.16;;;8.68;61.96
79150;BME280;68563;45.644;13.782;2024-02-04T08:42:15;101902.72;;;8.62;61.80
79150;BME280;68563;45.644;13.782;2024-02-04T08:44:40;101916.66;;;8.72;61.64
79150;BME280;68563;45.644;13.782;2024-02-04T08:47:06;101920.97;;;8.73;61.50
79150;BME280;68563;45.644;13.782;2024-02-04T08:49:35;101903.78;;;8.75;61.91
79150;BME280;68563;45.644;13.782;2024-02-04T08:52:01;101907.25;;;8.77;61.81
79150;BME280;68563;45.644;13.782;2024-02-04T08:54:26;101898.63;;;8.77;61.69
79150;BME280;68563;45.644;13.782;2024-02-04T08:56:52;101917.63;;;8.81;61.61
79150;BME280;68563;45.644;13.782;2024-02-04T08:59:17;101922.81;;;8.84;61.59
79150;BME280;68563;45.644;13.782;2024-02-04T09:01:43;101910.66;;;8.76;61.73
79150;BME280;68563;45.644;13.782;2024-02-04T09:04:08;101936.66;;;8.87;61.42
79150;BME280;68563;45.644;13.782;2024-02-04T09:06:33;101933.22;;;8.87;61.44
79150;BME280;68563;45.644;13.782;2024-02-04T09:08:59;101932.38;;;8.86;61.57
79150;BME280;68563;45.644;13.782;2024-02-04T09:11:24;101940.97;;;8.88;61.56
79150;BME280;68563;45.644;13.782;2024-02-04T09:13:50;101943.56;;;8.88;61.52
79150;BME280;68563;45.644;13.782;2024-02-04T09:16:15;101966.88;;;8.93;61.31
79150;BME280;68563;45.644;13.782;2024-02-04T09:18:41;101960.88;;;8.94;61.05
79150;BME280;68563;45.644;13.782;2024-02-04T09:21:07;101968.69;;;8.97;61.03
79150;BME280;68563;45.644;13.782;2024-02-04T09:23:33;101978.16;;;8.98;60.65
79150;BME280;68563;45.644;13.782;2024-02-04T09:25:58;101979.97;;;9.02;60.35
79150;BME280;68563;45.644;13.782;2024-02-04T09:28:24;101977.38;;;9.04;60.16
79150;BME280;68563;45.644;13.782;2024-02-04T09:30:49;101988.63;;;9.06;60.12
79150;BME280;68563;45.644;13.782;2024-02-04T09:33:15;101992.97;;;9.08;60.16
79150;BME280;68563;45.644;13.782;2024-02-04T09:35:40;101980.06;;;9.12;60.24
79150;BME280;68563;45.644;13.782;2024-02-04T09:38:05;101982.66;;;9.12;60.38
79150;BME280;68563;45.644;13.782;2024-02-04T09:40:31;101979.19;;;9.09;60.35
79150;BME280;68563;45.644;13.782;2024-02-04T09:42:58;101964.47;;;9.05;60.55
79150;BME280;68563;45.644;13.782;2024-02-04T09:45:23;101974.91;;;9.12;61.10
79150;BME280;68563;45.644;13.782;2024-02-04T09:47:50;101981.03;;;9.18;61.21
79150;BME280;68563;45.644;13.782;2024-02-04T09:50:19;101981.03;;;9.18;61.02
79150;BME280;68563;45.644;13.782;2024-02-04T09:52:48;101961.13;;;9.13;61.15
79150;BME280;68563;45.644;13.782;2024-02-04T09:55:15;101983.63;;;9.20;61.26
79150;BME280;68563;45.644;13.782;2024-02-04T09:57:41;101993.19;;;9.24;61.03
79150;BME280;68563;45.644;13.782;2024-02-04T10:00:07;101976.78;;;9.23;61.18
79150;BME280;68563;45.644;13.782;2024-02-04T10:02:33;101975.09;;;9.24;61.47
79150;BME280;68563;45.644;13.782;2024-02-04T10:04:59;101974.25;;;9.25;61.10
79150;BME280;68563;45.644;13.782;2024-02-04T10:07:24;101973.38;;;9.26;61.29
79150;BME280;68563;45.644;13.782;2024-02-04T10:09:50;101967.34;;;9.25;61.75
79150;BME280;68563;45.644;13.782;2024-02-04T10:12:16;101964.75;;;9.24;61.68
79150;BME280;68563;45.644;13.782;2024-02-04T10:14:42;101962.19;;;9.27;61.61
79150;BME280;68563;45.644;13.782;2024-02-04T10:17:09;101959.66;;;9.30;61.95
79150;BME280;68563;45.644;13.782;2024-02-04T10:19:34;101949.34;;;9.33;61.97
79150;BME280;68563;45.644;13.782;2024-02-04T10:22:00;101940.72;;;9.31;62.18
79150;BME280;68563;45.644;13.782;2024-02-04T10:24:27;101952.84;;;9.37;62.77
79150;BME280;68563;45.644;13.782;2024-02-04T10:26:57;101961.50;;;9.40;62.80
79150;BME280;68563;45.644;13.782;2024-02-04T10:29:24;101957.16;;;9.36;62.98
79150;BME280;68563;45.644;13.782;2024-02-04T10:31:56;101962.47;;;9.46;63.74
79150;BME280;68563;45.644;13.782;2024-02-04T10:34:23;101957.28;;;9.47;65.77
79150;BME280;68563;45.644;13.782;2024-02-04T10:36:50;101974.56;;;9.51;65.36
79150;BME280;68563;45.644;13.782;2024-02-04T10:39:16;101959.00;;;9.47;65.84
79150;BME280;68563;45.644;13.782;2024-02-04T10:41:51;101957.31;;;9.50;66.00
79150;BME280;68563;45.644;13.782;2024-02-04T10:44:17;101956.41;;;9.47;65.96
79150;BME280;68563;45.644;13.782;2024-02-04T10:46:46;101959.88;;;9.46;66.14
79150;BME280;68563;45.644;13.782;2024-02-04T10:49:14;101967.72;;;9.53;65.98
79150;BME280;68563;45.644;13.782;2024-02-04T10:51:41;101960.78;;;9.52;65.72
79150;BME280;68563;45.644;13.782;2024-02-04T10:54:07;101958.22;;;9.52;65.77
79150;BME280;68563;45.644;13.782;2024-02-04T10:56:45;101953.09;;;9.57;65.00
79150;BME280;68563;45.644;13.782;2024-02-04T10:59:15;101959.97;;;9.55;64.89
79150;BME280;68563;45.644;13.782;2024-02-04T11:01:43;101959.09;;;9.54;64.30
79150;BME280;68563;45.644;13.782;2024-02-04T11:04:10;101938.34;;;9.50;64.17
79150;BME280;68563;45.644;13.782;2024-02-04T11:06:40;101956.53;;;9.56;64.51
79150;BME280;68563;45.644;13.782;2024-02-04T11:09:06;101946.19;;;9.56;64.74
79150;BME280;68563;45.644;13.782;2024-02-04T11:11:34;101934.09;;;9.55;64.54
79150;BME280;68563;45.644;13.782;2024-02-04T11:14:03;101916.84;;;9.52;64.34
79150;BME280;68563;45.644;13.782;2024-02-04T11:27:25;101899.69;;;9.59;66.13
79150;BME280;68563;45.644;13.782;2024-02-04T11:29:51;101894.53;;;9.61;66.74
79150;BME280;68563;45.644;13.782;2024-02-04T11:32:17;101892.78;;;9.61;67.61
79150;BME280;68563;45.644;13.782;2024-02-04T11:34:44;101873.81;;;9.61;67.64
79150;BME280;68563;45.644;13.782;2024-02-04T11:37:17;101866.13;;;9.65;68.25
79150;BME280;68563;45.644;13.782;2024-02-04T11:39:50;101865.22;;;9.65;68.72
79150;BME280;68563;45.644;13.782;2024-02-04T11:42:15;101877.34;;;9.67;68.88
79150;BME280;68563;45.644;13.782;2024-02-04T11:44:41;101877.38;;;9.69;69.21
79150;BME280;68563;45.644;13.782;2024-02-04T11:47:07;101875.69;;;9.74;69.44
79150;BME280;68563;45.644;13.782;2024-02-04T11:49:33;101879.97;;;9.70;70.12
79150;BME280;68563;45.644;13.782;2024-02-04T11:51:59;101877.44;;;9.75;69.97
79150;BME280;68563;45.644;13.782;2024-02-04T11:54:25;101866.22;;;9.76;69.68
79150;BME280;68563;45.644;13.782;2024-02-04T11:56:52;101862.78;;;9.77;70.13
79150;BME280;68563;45.644;13.782;2024-02-04T11:59:20;101869.69;;;9.78;70.28
79150;BME280;68563;45.644;13.782;2024-02-04T12:01:49;101863.66;;;9.78;70.02
79150;BME280;68563;45.644;13.782;2024-02-04T12:04:18;101863.59;;;9.73;70.08
79150;BME280;68563;45.644;13.782;2024-02-04T12:06:43;101867.94;;;9.76;69.99
79150;BME280;68563;45.644;13.782;2024-02-04T12:09:09;101861.06;;;9.78;70.07
79150;BME280;68563;45.644;13.782;2024-02-04T12:11:38;101868.84;;;9.81;70.51
79150;BME280;68563;45.644;13.782;2024-02-04T12:14:05;101865.41;;;9.82;70.77
79150;BME280;68563;45.644;13.782;2024-02-04T12:16:33;101855.91;;;9.81;71.33
79150;BME280;68563;45.644;13.782;2024-02-04T12:19:01;101849.88;;;9.79;71.21
79150;BME280;68563;45.644;13.782;2024-02-04T12:21:28;101857.69;;;9.86;71.58
79150;BME280;68563;45.644;13.782;2024-02-04T12:23:54;101849.94;;;9.88;71.82
79150;BME280;68563;45.644;13.782;2024-02-04T12:26:20;101850.81;;;9.87;72.02
79150;BME280;68563;45.644;13.782;2024-02-04T12:28:46;101859.47;;;9.92;73.22
79150;BME280;68563;45.644;13.782;2024-02-04T12:31:19;101850.78;;;9.85;73.10
79150;BME280;68563;45.644;13.782;2024-02-04T12:33:58;101870.72;;;9.94;72.90
79150;BME280;68563;45.644;13.782;2024-02-04T12:36:28;101871.56;;;9.95;73.42
79150;BME280;68563;45.644;13.782;2024-02-04T12:39:01;101862.06;;;9.95;73.42
79150;BME280;68563;45.644;13.782;2024-02-04T12:41:27;101851.72;;;9.92;73.26
79150;BME280;68563;45.644;13.782;2024-02-04T12:43:55;101856.03;;;9.96;73.58
79150;BME280;68563;45.644;13.782;2024-02-04T12:46:21;101860.31;;;9.91;73.18
79150;BME280;68563;45.644;13.782;2024-02-04T12:48:54;101848.28;;;9.93;73.30
79150;BME280;68563;45.644;13.782;2024-02-04T12:51:29;101840.50;;;9.93;73.53
79150;BME280;68563;45.644;13.782;2024-02-04T12:54:08;101836.19;;;9.95;73.90
79150;BME280;68563;45.644;13.782;2024-02-04T12:59:05;101838.78;;;9.94;74.38
79150;BME280;68563;45.644;13.782;2024-02-04T13:01:32;101831.84;;;9.91;74.43
79150;BME280;68563;45.644;13.782;2024-02-04T13:03:57;101823.25;;;9.90;73.99
79150;BME280;68563;45.644;13.782;2024-02-04T13:06:23;101821.50;;;9.91;74.88